sensor_id;sensor_type;location;lat;lon;timestamp;temperature;humidity
11944;DHT22;6031;50.220;10.122;2023-04-21T00:00:00;9.10;1.00
11944;DHT22;6031;50.220;10.122;2023-04-21T00:02:26;9.10;1.00
11944;DHT22;6031;50.220;10.122;2023-04-21T00:04:52;9.10;1.00
11944;DHT22;6031;50.220;10.122;2023-04-21T00:07:18;9.10;1.00
11944;DHT22;6031;50.220;10.122;2023-04-21T00:09:45;9.10;2.50
11944;DHT22;6031;50.220;10.122;2023-04-21T00:12:10;9.10;99.90
11944;DHT22;6031;50.220;10.122;2023-04-21T00:14:36;9.10;55.70
11944;DHT22;6031;50.220;10.122;2023-04-21T00:17:01;9.10;1.60
11944;DHT22;6031;50.220;10.122;2023-04-21T00:19:27;9.10;42.80
11944;DHT22;6031;50.220;10.122;2023-04-21T00:21:54;9.10;99.90
11944;DHT22;6031;50.220;10.122;2023-04-21T00:24:24;9.10;15.30
11944;DHT22;6031;50.220;10.122;2023-04-21T00:26:50;9.10;1.00
11944;DHT22;6031;50.220;10.122;2023-04-21T00:29:16;9.10;1.00
11944;DHT22;6031;50.220;10.122;2023-04-21T00:31:41;9.00;1.00
11944;DHT22;6031;50.220;10.122;2023-04-21T00:34:07;8.90;1.00
11944;DHT22;6031;50.220;10.122;2023-04-21T00:36:32;8.80;99.90
11944;DHT22;6031;50.220;10.122;2023-04-21T00:38:58;8.80;99.90
11944;DHT22;6031;50.220;10.122;2023-04-21T00:41:24;8.70;1.00
11944;DHT22;6031;50.220;10.122;2023-04-21T00:44:19;8.70;1.00
11944;DHT22;6031;50.220;10.122;2023-04-21T00:46:44;8.70;99.90
11944;DHT22;6031;50.220;10.122;2023-04-21T00:49:10;8.60;1.00
11944;DHT22;6031;50.220;10.122;2023-04-21T00:51:37;8.50;99.90
11944;DHT22;6031;50.220;10.122;2023-04-21T00:54:04;8.40;1.00
11944;DHT22;6031;50.220;10.122;2023-04-21T00:56:32;8.20;99.70
11944;DHT22;6031;50.220;10.122;2023-04-21T00:58:59;8.20;99.90
11944;DHT22;6031;50.220;10.122;2023-04-21T01:01:25;8.10;1.00
11944;DHT22;6031;50.220;10.122;2023-04-21T01:03:51;8.10;1.00
11944;DHT22;6031;50.220;10.122;2023-04-21T01:06:18;8.10;99.90
11944;DHT22;6031;50.220;10.122;2023-04-21T01:08:47;8.10;99.90
11944;DHT22;6031;50.220;10.122;2023-04-21T01:11:13;8.10;99.90
11944;DHT22;6031;50.220;10.122;2023-04-21T01:13:39;8.10;99.90
11944;DHT22;6031;50.220;10.122;2023-04-21T01:16:06;8.20;1.00
11944;DHT22;6031;50.220;10.122;2023-04-21T01:18:35;8.20;1.00
11944;DHT22;6031;50.220;10.122;2023-04-21T01:21:02;8.10;1.00
11944;DHT22;6031;50.220;10.122;2023-04-21T01:23:28;8.00;1.00
11944;DHT22;6031;50.220;10.122;2023-04-21T01:25:54;8.00;1.00
11944;DHT22;6031;50.220;10.122;2023-04-21T01:28:23;8.00;63.40
11944;DHT22;6031;50.220;10.122;2023-04-21T01:30:49;7.90;34.10
11944;DHT22;6031;50.220;10.122;2023-04-21T01:33:15;7.90;99.90
11944;DHT22;6031;50.220;10.122;2023-04-21T01:35:40;7.80;99.90
11944;DHT22;6031;50.220;10.122;2023-04-21T01:38:06;7.70;1.00
11944;DHT22;6031;50.220;10.122;2023-04-21T01:40:31;7.70;1.00
11944;DHT22;6031;50.220;10.122;2023-04-21T01:42:57;7.60;1.00
11944;DHT22;6031;50.220;10.122;2023-04-21T01:45:23;7.60;1.00
11944;DHT22;6031;50.220;10.122;2023-04-21T01:47:49;7.50;1.00
11944;DHT22;6031;50.220;10.122;2023-04-21T01:50:14;7.40;99.90
11944;DHT22;6031;50.220;10.122;2023-04-21T01:52:40;7.40;1.00
11944;DHT22;6031;50.220;10.122;2023-04-21T01:55:06;7.40;1.00
11944;DHT22;6031;50.220;10.122;2023-04-21T01:57:32;7.50;1.00
11944;DHT22;6031;50.220;10.122;2023-04-21T01:59:57;7.40;1.00
11944;DHT22;6031;50.220;10.122;2023-04-21T02:02:23;7.40;1.00
11944;DHT22;6031;50.220;10.122;2023-04-21T02:04:48;7.40;1.00
11944;DHT22;6031;50.220;10.122;2023-04-21T02:07:14;7.30;80.90
11944;DHT22;6031;50.220;10.122;2023-04-21T02:09:39;7.30;99.90
11944;DHT22;6031;50.220;10.122;2023-04-21T02:12:05;7.20;1.00
11944;DHT22;6031;50.220;10.122;2023-04-21T02:14:31;7.30;75.40
11944;DHT22;6031;50.220;10.122;2023-04-21T02:16:56;7.30;56.80
11944;DHT22;6031;50.220;10.122;2023-04-21T02:19:22;7.20;99.90
11944;DHT22;6031;50.220;10.122;2023-04-21T02:21:48;7.20;99.90
11944;DHT22;6031;50.220;10.122;2023-04-21T02:24:13;7.30;99.90
11944;DHT22;6031;50.220;10.122;2023-04-21T02:26:39;7.30;99.90
11944;DHT22;6031;50.220;10.122;2023-04-21T02:29:04;7.20;99.90
11944;DHT22;6031;50.220;10.122;2023-04-21T02:31:30;7.20;99.90
11944;DHT22;6031;50.220;10.122;2023-04-21T02:33:55;7.10;99.90
11944;DHT22;6031;50.220;10.122;2023-04-21T02:36:21;7.00;99.90
11944;DHT22;6031;50.220;10.122;2023-04-21T02:38:47;6.90;99.90
11944;DHT22;6031;50.220;10.122;2023-04-21T02:41:12;6.80;99.90
11944;DHT22;6031;50.220;10.122;2023-04-21T02:43:38;6.80;99.90
11944;DHT22;6031;50.220;10.122;2023-04-21T02:46:06;6.70;1.00
11944;DHT22;6031;50.220;10.122;2023-04-21T02:48:33;6.60;1.00
11944;DHT22;6031;50.220;10.122;2023-04-21T02:50:59;6.70;1.00
11944;DHT22;6031;50.220;10.122;2023-04-21T02:53:24;6.60;1.00
11944;DHT22;6031;50.220;10.122;2023-04-21T02:55:50;6.60;1.00
11944;DHT22;6031;50.220;10.122;2023-04-21T02:58:15;6.50;1.00
11944;DHT22;6031;50.220;10.122;2023-04-21T03:00:41;6.60;1.00
11944;DHT22;6031;50.220;10.122;2023-04-21T03:03:06;6.60;1.00
11944;DHT22;6031;50.220;10.122;2023-04-21T03:05:32;6.60;1.00
11944;DHT22;6031;50.220;10.122;2023-04-21T03:07:57;6.70;1.00
11944;DHT22;6031;50.220;10.122;2023-04-21T03:10:23;6.60;1.00
11944;DHT22;6031;50.220;10.122;2023-04-21T03:12:48;6.70;1.00
11944;DHT22;6031;50.220;10.122;2023-04-21T03:15:14;6.70;1.00
11944;DHT22;6031;50.220;10.122;2023-04-21T03:17:41;6.80;1.00
11944;DHT22;6031;50.220;10.122;2023-04-21T03:20:07;6.90;1.00
11944;DHT22;6031;50.220;10.122;2023-04-21T03:22:37;6.90;1.00
11944;DHT22;6031;50.220;10.122;2023-04-21T03:25:02;7.00;1.00
11944;DHT22;6031;50.220;10.122;2023-04-21T03:27:29;7.00;1.00
11944;DHT22;6031;50.220;10.122;2023-04-21T03:29:55;7.10;1.00
11944;DHT22;6031;50.220;10.122;2023-04-21T03:32:20;7.10;1.00
11944;DHT22;6031;50.220;10.122;2023-04-21T03:34:46;7.20;1.00
11944;DHT22;6031;50.220;10.122;2023-04-21T03:37:11;7.20;1.00
11944;DHT22;6031;50.220;10.122;2023-04-21T03:39:37;7.20;99.90
11944;DHT22;6031;50.220;10.122;2023-04-21T03:42:02;7.20;99.90
11944;DHT22;6031;50.220;10.122;2023-04-21T03:44:29;7.10;99.90
11944;DHT22;6031;50.220;10.122;2023-04-21T03:46:55;7.10;99.90
11944;DHT22;6031;50.220;10.122;2023-04-21T03:49:22;7.00;99.90
11944;DHT22;6031;50.220;10.122;2023-04-21T03:51:47;7.10;1.00
11944;DHT22;6031;50.220;10.122;2023-04-21T03:54:13;7.10;1.00
11944;DHT22;6031;50.220;10.122;2023-04-21T03:56:38;7.10;1.00
11944;DHT22;6031;50.220;10.122;2023-04-21T03:59:04;7.20;1.00
11944;DHT22;6031;50.220;10.122;2023-04-21T04:01:31;7.30;1.00
11944;DHT22;6031;50.220;10.122;2023-04-21T04:03:56;7.30;1.00
11944;DHT22;6031;50.220;10.122;2023-04-21T04:06:22;7.30;1.00
11944;DHT22;6031;50.220;10.122;2023-04-21T04:08:47;7.50;99.90
11944;DHT22;6031;50.220;10.122;2023-04-21T04:11:13;7.50;99.90
11944;DHT22;6031;50.220;10.122;2023-04-21T04:13:38;7.60;1.00
11944;DHT22;6031;50.220;10.122;2023-04-21T04:16:04;7.70;1.00
11944;DHT22;6031;50.220;10.122;2023-04-21T04:18:30;7.70;99.90
11944;DHT22;6031;50.220;10.122;2023-04-21T04:20:55;7.70;99.90
11944;DHT22;6031;50.220;10.122;2023-04-21T04:23:20;7.70;99.90
11944;DHT22;6031;50.220;10.122;2023-04-21T04:25:46;7.70;99.90
11944;DHT22;6031;50.220;10.122;2023-04-21T04:28:13;7.80;54.10
11944;DHT22;6031;50.220;10.122;2023-04-21T04:30:40;7.80;1.00
11944;DHT22;6031;50.220;10.122;2023-04-21T04:33:06;7.80;1.00
11944;DHT22;6031;50.220;10.122;2023-04-21T04:35:31;7.80;1.00
11944;DHT22;6031;50.220;10.122;2023-04-21T04:37:57;7.80;99.90
11944;DHT22;6031;50.220;10.122;2023-04-21T04:40:23;7.90;99.90
11944;DHT22;6031;50.220;10.122;2023-04-21T04:42:49;7.90;99.90
11944;DHT22;6031;50.220;10.122;2023-04-21T04:45:16;7.90;1.00
11944;DHT22;6031;50.220;10.122;2023-04-21T04:47:42;8.00;1.00
11944;DHT22;6031;50.220;10.122;2023-04-21T04:50:08;8.00;99.90
11944;DHT22;6031;50.220;10.122;2023-04-21T04:52:33;8.10;99.90
11944;DHT22;6031;50.220;10.122;2023-04-21T04:54:59;8.10;99.90
11944;DHT22;6031;50.220;10.122;2023-04-21T04:57:24;8.10;99.90
11944;DHT22;6031;50.220;10.122;2023-04-21T04:59:56;8.10;99.90
11944;DHT22;6031;50.220;10.122;2023-04-21T05:02:22;8.10;99.90
11944;DHT22;6031;50.220;10.122;2023-04-21T05:04:49;8.10;99.90
11944;DHT22;6031;50.220;10.122;2023-04-21T05:07:14;8.10;1.00
11944;DHT22;6031;50.220;10.122;2023-04-21T05:09:40;8.20;99.90
11944;DHT22;6031;50.220;10.122;2023-04-21T05:12:06;8.20;12.90
11944;DHT22;6031;50.220;10.122;2023-04-21T05:14:32;8.20;1.00
11944;DHT22;6031;50.220;10.122;2023-04-21T05:16:57;8.20;1.00
11944;DHT22;6031;50.220;10.122;2023-04-21T05:19:23;8.20;1.00
11944;DHT22;6031;50.220;10.122;2023-04-21T05:21:48;8.20;1.00
11944;DHT22;6031;50.220;10.122;2023-04-21T05:24:14;8.20;1.00
11944;DHT22;6031;50.220;10.122;2023-04-21T05:26:39;8.30;99.90
11944;DHT22;6031;50.220;10.122;2023-04-21T05:29:05;8.40;1.00
11944;DHT22;6031;50.220;10.122;2023-04-21T05:31:30;8.50;1.00
11944;DHT22;6031;50.220;10.122;2023-04-21T05:33:57;8.50;63.80
11944;DHT22;6031;50.220;10.122;2023-04-21T05:36:22;8.60;1.00
11944;DHT22;6031;50.220;10.122;2023-04-21T05:38:49;8.60;1.00
11944;DHT22;6031;50.220;10.122;2023-04-21T05:41:14;8.80;99.90
11944;DHT22;6031;50.220;10.122;2023-04-21T05:43:40;8.90;1.00
11944;DHT22;6031;50.220;10.122;2023-04-21T05:46:08;9.10;1.00
11944;DHT22;6031;50.220;10.122;2023-04-21T05:48:35;9.30;1.00
11944;DHT22;6031;50.220;10.122;2023-04-21T05:51:13;9.60;1.00
11944;DHT22;6031;50.220;10.122;2023-04-21T05:53:40;9.90;1.00
11944;DHT22;6031;50.220;10.122;2023-04-21T05:56:11;10.20;1.00
11944;DHT22;6031;50.220;10.122;2023-04-21T05:58:37;10.40;1.00
11944;DHT22;6031;50.220;10.122;2023-04-21T06:01:03;10.40;1.00
11944;DHT22;6031;50.220;10.122;2023-04-21T06:03:32;10.50;1.00
11944;DHT22;6031;50.220;10.122;2023-04-21T06:06:02;10.60;1.00
11944;DHT22;6031;50.220;10.122;2023-04-21T06:08:28;10.70;1.00
11944;DHT22;6031;50.220;10.122;2023-04-21T06:10:53;10.80;99.90
11944;DHT22;6031;50.220;10.122;2023-04-21T06:13:19;10.80;99.90
11944;DHT22;6031;50.220;10.122;2023-04-21T06:15:44;10.90;99.90
11944;DHT22;6031;50.220;10.122;2023-04-21T06:18:10;11.30;30.50
11944;DHT22;6031;50.220;10.122;2023-04-21T06:20:36;11.70;99.90
11944;DHT22;6031;50.220;10.122;2023-04-21T06:23:01;12.10;96.00
11944;DHT22;6031;50.220;10.122;2023-04-21T06:25:27;13.00;1.00
11944;DHT22;6031;50.220;10.122;2023-04-21T06:27:52;14.60;80.70
11944;DHT22;6031;50.220;10.122;2023-04-21T06:30:18;16.00;99.90
11944;DHT22;6031;50.220;10.122;2023-04-21T06:32:43;16.90;1.00
11944;DHT22;6031;50.220;10.122;2023-04-21T06:35:13;17.30;1.00
11944;DHT22;6031;50.220;10.122;2023-04-21T06:37:42;17.70;1.00
11944;DHT22;6031;50.220;10.122;2023-04-21T06:40:08;18.60;1.00
11944;DHT22;6031;50.220;10.122;2023-04-21T06:42:33;17.80;1.00
11944;DHT22;6031;50.220;10.122;2023-04-21T06:44:59;17.00;1.00
11944;DHT22;6031;50.220;10.122;2023-04-21T06:47:25;16.90;1.00
11944;DHT22;6031;50.220;10.122;2023-04-21T06:49:50;17.20;1.00
11944;DHT22;6031;50.220;10.122;2023-04-21T06:52:16;17.60;1.00
11944;DHT22;6031;50.220;10.122;2023-04-21T06:54:41;17.00;1.00
11944;DHT22;6031;50.220;10.122;2023-04-21T06:57:07;16.80;1.00
11944;DHT22;6031;50.220;10.122;2023-04-21T06:59:32;17.00;1.00
11944;DHT22;6031;50.220;10.122;2023-04-21T07:01:59;17.30;1.00
11944;DHT22;6031;50.220;10.122;2023-04-21T07:04:24;17.50;1.00
11944;DHT22;6031;50.220;10.122;2023-04-21T07:06:54;17.60;1.00
11944;DHT22;6031;50.220;10.122;2023-04-21T07:09:20;17.40;1.00
11944;DHT22;6031;50.220;10.122;2023-04-21T07:11:46;17.00;1.00
11944;DHT22;6031;50.220;10.122;2023-04-21T07:14:11;16.40;1.00
11944;DHT22;6031;50.220;10.122;2023-04-21T07:16:37;15.80;1.00
11944;DHT22;6031;50.220;10.122;2023-04-21T07:19:02;15.40;1.00
11944;DHT22;6031;50.220;10.122;2023-04-21T07:21:28;15.10;22.60
11944;DHT22;6031;50.220;10.122;2023-04-21T07:24:01;15.10;24.20
11944;DHT22;6031;50.220;10.122;2023-04-21T07:26:26;15.00;99.00
11944;DHT22;6031;50.220;10.122;2023-04-21T07:28:52;15.30;41.70
11944;DHT22;6031;50.220;10.122;2023-04-21T07:31:17;15.00;34.50
11944;DHT22;6031;50.220;10.122;2023-04-21T07:33:43;15.60;6.30
11944;DHT22;6031;50.220;10.122;2023-04-21T07:36:09;16.90;1.00
11944;DHT22;6031;50.220;10.122;2023-04-21T07:38:34;18.20;1.00
11944;DHT22;6031;50.220;10.122;2023-04-21T07:41:00;19.00;1.00
11944;DHT22;6031;50.220;10.122;2023-04-21T07:43:26;19.80;1.00
11944;DHT22;6031;50.220;10.122;2023-04-21T07:45:51;20.00;1.00
11944;DHT22;6031;50.220;10.122;2023-04-21T07:48:17;19.90;1.00
11944;DHT22;6031;50.220;10.122;2023-04-21T07:50:43;20.50;1.00
11944;DHT22;6031;50.220;10.122;2023-04-21T07:53:09;20.40;1.00
11944;DHT22;6031;50.220;10.122;2023-04-21T07:55:34;20.70;1.00
11944;DHT22;6031;50.220;10.122;2023-04-21T07:58:02;20.30;1.00
11944;DHT22;6031;50.220;10.122;2023-04-21T08:00:28;20.30;1.00
11944;DHT22;6031;50.220;10.122;2023-04-21T08:02:54;21.00;1.00
11944;DHT22;6031;50.220;10.122;2023-04-21T08:05:19;20.10;1.00
11944;DHT22;6031;50.220;10.122;2023-04-21T08:07:45;19.20;1.00
11944;DHT22;6031;50.220;10.122;2023-04-21T08:10:10;18.10;1.00
11944;DHT22;6031;50.220;10.122;2023-04-21T08:12:36;17.30;1.00
11944;DHT22;6031;50.220;10.122;2023-04-21T08:15:02;17.20;1.00
11944;DHT22;6031;50.220;10.122;2023-04-21T08:17:31;17.20;1.00
11944;DHT22;6031;50.220;10.122;2023-04-21T08:19:57;17.20;1.00
11944;DHT22;6031;50.220;10.122;2023-04-21T08:22:22;16.50;1.00
11944;DHT22;6031;50.220;10.122;2023-04-21T08:24:48;17.20;1.00
11944;DHT22;6031;50.220;10.122;2023-04-21T08:27:13;17.90;1.00
11944;DHT22;6031;50.220;10.122;2023-04-21T08:29:39;18.30;1.00
11944;DHT22;6031;50.220;10.122;2023-04-21T08:32:04;18.60;1.00
11944;DHT22;6031;50.220;10.122;2023-04-21T08:34:30;19.20;1.00
11944;DHT22;6031;50.220;10.122;2023-04-21T08:36:55;20.00;1.00
11944;DHT22;6031;50.220;10.122;2023-04-21T08:39:21;19.70;1.00
11944;DHT22;6031;50.220;10.122;2023-04-21T08:41:46;20.20;1.00
11944;DHT22;6031;50.220;10.122;2023-04-21T08:44:12;21.40;1.00
11944;DHT22;6031;50.220;10.122;2023-04-21T08:46:38;23.10;1.00
11944;DHT22;6031;50.220;10.122;2023-04-21T08:49:04;23.10;1.00
11944;DHT22;6031;50.220;10.122;2023-04-21T08:51:30;23.50;1.00
11944;DHT22;6031;50.220;10.122;2023-04-21T08:53:57;22.70;1.00
11944;DHT22;6031;50.220;10.122;2023-04-21T08:56:24;21.70;1.00
11944;DHT22;6031;50.220;10.122;2023-04-21T08:58:50;22.90;1.00
11944;DHT22;6031;50.220;10.122;2023-04-21T09:01:16;25.30;1.00
11944;DHT22;6031;50.220;10.122;2023-04-21T09:03:41;25.30;1.00
11944;DHT22;6031;50.220;10.122;2023-04-21T09:06:08;23.30;1.00
11944;DHT22;6031;50.220;10.122;2023-04-21T09:08:37;21.90;1.00
11944;DHT22;6031;50.220;10.122;2023-04-21T09:11:04;20.90;1.00
11944;DHT22;6031;50.220;10.122;2023-04-21T09:13:35;21.00;1.00
11944;DHT22;6031;50.220;10.122;2023-04-21T09:16:02;21.70;1.00
11944;DHT22;6031;50.220;10.122;2023-04-21T09:18:29;23.00;1.00
11944;DHT22;6031;50.220;10.122;2023-04-21T09:21:15;22.80;1.00
11944;DHT22;6031;50.220;10.122;2023-04-21T09:23:45;22.70;1.00
11944;DHT22;6031;50.220;10.122;2023-04-21T09:26:11;23.30;1.00
11944;DHT22;6031;50.220;10.122;2023-04-21T09:28:40;23.80;1.00
11944;DHT22;6031;50.220;10.122;2023-04-21T09:31:12;23.30;1.00
11944;DHT22;6031;50.220;10.122;2023-04-21T09:33:43;23.70;1.00
11944;DHT22;6031;50.220;10.122;2023-04-21T09:36:26;24.20;1.00
11944;DHT22;6031;50.220;10.122;2023-04-21T09:39:00;24.80;1.00
11944;DHT22;6031;50.220;10.122;2023-04-21T09:41:30;25.40;1.00
11944;DHT22;6031;50.220;10.122;2023-04-21T09:43:56;25.10;1.00
11944;DHT22;6031;50.220;10.122;2023-04-21T09:46:28;25.30;1.00
11944;DHT22;6031;50.220;10.122;2023-04-21T09:48:54;25.20;1.00
11944;DHT22;6031;50.220;10.122;2023-04-21T09:51:21;26.30;1.00
11944;DHT22;6031;50.220;10.122;2023-04-21T09:53:52;26.20;1.00
11944;DHT22;6031;50.220;10.122;2023-04-21T09:56:20;25.90;1.00
11944;DHT22;6031;50.220;10.122;2023-04-21T09:58:50;25.30;1.00
11944;DHT22;6031;50.220;10.122;2023-04-21T10:01:16;25.00;1.00
11944;DHT22;6031;50.220;10.122;2023-04-21T10:03:43;26.10;1.00
11944;DHT22;6031;50.220;10.122;2023-04-21T10:06:11;26.40;1.00
11944;DHT22;6031;50.220;10.122;2023-04-21T10:08:37;26.70;1.00
11944;DHT22;6031;50.220;10.122;2023-04-21T10:11:03;26.50;1.00
11944;DHT22;6031;50.220;10.122;2023-04-21T10:13:29;26.40;1.00
11944;DHT22;6031;50.220;10.122;2023-04-21T10:16:04;25.40;1.00
11944;DHT22;6031;50.220;10.122;2023-04-21T10:18:34;26.10;1.00
11944;DHT22;6031;50.220;10.122;2023-04-21T10:21:08;26.80;1.00
11944;DHT22;6031;50.220;10.122;2023-04-21T10:24:03;26.20;1.00
11944;DHT22;6031;50.220;10.122;2023-04-21T10:26:34;26.90;1.00
11944;DHT22;6031;50.220;10.122;2023-04-21T10:29:03;25.90;1.00
11944;DHT22;6031;50.220;10.122;2023-04-21T10:34:16;27.30;1.00
11944;DHT22;6031;50.220;10.122;2023-04-21T10:39:25;27.40;1.00
11944;DHT22;6031;50.220;10.122;2023-04-21T10:41:50;27.90;1.00
11944;DHT22;6031;50.220;10.122;2023-04-21T10:44:20;28.60;1.00
11944;DHT22;6031;50.220;10.122;2023-04-21T10:46:51;26.90;1.00
11944;DHT22;6031;50.220;10.122;2023-04-21T10:49:27;26.20;1.00
11944;DHT22;6031;50.220;10.122;2023-04-21T10:54:26;23.90;1.00
11944;DHT22;6031;50.220;10.122;2023-04-21T10:56:54;23.10;1.00
11944;DHT22;6031;50.220;10.122;2023-04-21T10:59:20;23.80;1.00
11944;DHT22;6031;50.220;10.122;2023-04-21T11:01:46;22.80;1.00
11944;DHT22;6031;50.220;10.122;2023-04-21T11:04:15;22.10;1.00
11944;DHT22;6031;50.220;10.122;2023-04-21T11:06:41;22.70;1.00
11944;DHT22;6031;50.220;10.122;2023-04-21T11:09:07;24.10;1.00
11944;DHT22;6031;50.220;10.122;2023-04-21T11:11:33;23.10;1.00
11944;DHT22;6031;50.220;10.122;2023-04-21T11:14:04;23.00;1.00
11944;DHT22;6031;50.220;10.122;2023-04-21T11:16:30;23.70;1.00
11944;DHT22;6031;50.220;10.122;2023-04-21T11:18:55;24.10;1.00
11944;DHT22;6031;50.220;10.122;2023-04-21T11:21:21;25.80;1.00
11944;DHT22;6031;50.220;10.122;2023-04-21T11:26:17;28.60;1.00
11944;DHT22;6031;50.220;10.122;2023-04-21T11:28:47;28.40;1.00
11944;DHT22;6031;50.220;10.122;2023-04-21T11:31:14;26.90;1.00
11944;DHT22;6031;50.220;10.122;2023-04-21T11:33:40;26.40;1.00
11944;DHT22;6031;50.220;10.122;2023-04-21T11:36:06;26.30;1.00
11944;DHT22;6031;50.220;10.122;2023-04-21T11:38:39;27.30;1.00
11944;DHT22;6031;50.220;10.122;2023-04-21T11:41:05;27.20;1.00
11944;DHT22;6031;50.220;10.122;2023-04-21T11:43:31;27.70;1.00
11944;DHT22;6031;50.220;10.122;2023-04-21T11:46:32;27.10;1.00
11944;DHT22;6031;50.220;10.122;2023-04-21T11:49:01;26.70;1.00
11944;DHT22;6031;50.220;10.122;2023-04-21T11:51:39;27.50;1.00
11944;DHT22;6031;50.220;10.122;2023-04-21T11:54:07;27.20;1.00
11944;DHT22;6031;50.220;10.122;2023-04-21T11:56:34;27.90;1.00
11944;DHT22;6031;50.220;10.122;2023-04-21T11:59:06;27.60;1.00
11944;DHT22;6031;50.220;10.122;2023-04-21T12:01:31;27.20;1.00
11944;DHT22;6031;50.220;10.122;2023-04-21T12:03:57;26.80;1.00
11944;DHT22;6031;50.220;10.122;2023-04-21T12:06:24;27.50;1.00
11944;DHT22;6031;50.220;10.122;2023-04-21T12:08:55;27.60;1.00
11944;DHT22;6031;50.220;10.122;2023-04-21T12:11:23;27.60;1.00
11944;DHT22;6031;50.220;10.122;2023-04-21T12:13:48;26.10;1.00
11944;DHT22;6031;50.220;10.122;2023-04-21T12:16:14;25.40;1.00
11944;DHT22;6031;50.220;10.122;2023-04-21T12:18:41;24.80;1.00
11944;DHT22;6031;50.220;10.122;2023-04-21T12:21:07;23.90;1.00
11944;DHT22;6031;50.220;10.122;2023-04-21T12:23:32;22.60;1.00
11944;DHT22;6031;50.220;10.122;2023-04-21T12:25:58;21.80;1.00
11944;DHT22;6031;50.220;10.122;2023-04-21T12:28:24;21.50;1.00
11944;DHT22;6031;50.220;10.122;2023-04-21T12:30:50;22.80;1.00
11944;DHT22;6031;50.220;10.122;2023-04-21T12:33:16;24.70;1.00
11944;DHT22;6031;50.220;10.122;2023-04-21T12:35:42;26.00;1.00
11944;DHT22;6031;50.220;10.122;2023-04-21T12:38:07;27.00;1.00
11944;DHT22;6031;50.220;10.122;2023-04-21T12:40:33;26.90;1.00
11944;DHT22;6031;50.220;10.122;2023-04-21T12:42:59;27.00;1.00
11944;DHT22;6031;50.220;10.122;2023-04-21T12:45:25;26.20;1.00
11944;DHT22;6031;50.220;10.122;2023-04-21T12:47:50;25.20;1.00
11944;DHT22;6031;50.220;10.122;2023-04-21T12:50:16;25.70;1.00
11944;DHT22;6031;50.220;10.122;2023-04-21T12:52:41;24.90;1.00
11944;DHT22;6031;50.220;10.122;2023-04-21T12:55:07;25.10;1.00
11944;DHT22;6031;50.220;10.122;2023-04-21T12:57:33;25.00;1.00
11944;DHT22;6031;50.220;10.122;2023-04-21T12:59:59;24.70;1.00
11944;DHT22;6031;50.220;10.122;2023-04-21T13:02:24;24.90;1.00
11944;DHT22;6031;50.220;10.122;2023-04-21T13:04:50;23.60;1.00
11944;DHT22;6031;50.220;10.122;2023-04-21T13:07:15;22.00;1.00
11944;DHT22;6031;50.220;10.122;2023-04-21T13:09:45;21.80;1.00
11944;DHT22;6031;50.220;10.122;2023-04-21T13:12:10;22.50;1.00
11944;DHT22;6031;50.220;10.122;2023-04-21T13:14:36;23.20;1.00
11944;DHT22;6031;50.220;10.122;2023-04-21T13:17:01;23.10;1.00
11944;DHT22;6031;50.220;10.122;2023-04-21T13:19:27;22.90;1.00
11944;DHT22;6031;50.220;10.122;2023-04-21T13:21:53;22.90;1.00
11944;DHT22;6031;50.220;10.122;2023-04-21T13:24:19;23.40;1.00
11944;DHT22;6031;50.220;10.122;2023-04-21T13:26:44;23.30;99.90
11944;DHT22;6031;50.220;10.122;2023-04-21T13:29:10;23.40;1.00
11944;DHT22;6031;50.220;10.122;2023-04-21T13:31:35;23.50;1.00
11944;DHT22;6031;50.220;10.122;2023-04-21T13:34:01;23.60;1.00
11944;DHT22;6031;50.220;10.122;2023-04-21T13:36:27;23.70;1.00
11944;DHT22;6031;50.220;10.122;2023-04-21T13:38:52;23.40;1.00
11944;DHT22;6031;50.220;10.122;2023-04-21T13:41:20;23.30;1.00
11944;DHT22;6031;50.220;10.122;2023-04-21T13:43:45;23.60;1.00
11944;DHT22;6031;50.220;10.122;2023-04-21T13:46:11;24.00;1.00
11944;DHT22;6031;50.220;10.122;2023-04-21T13:48:39;23.10;1.00
11944;DHT22;6031;50.220;10.122;2023-04-21T13:51:04;23.70;1.00
11944;DHT22;6031;50.220;10.122;2023-04-21T13:53:30;24.50;1.00
11944;DHT22;6031;50.220;10.122;2023-04-21T13:55:56;24.30;1.00
11944;DHT22;6031;50.220;10.122;2023-04-21T13:58:23;24.50;99.90
11944;DHT22;6031;50.220;10.122;2023-04-21T14:00:49;24.20;99.90
11944;DHT22;6031;50.220;10.122;2023-04-21T14:03:14;24.30;1.00
11944;DHT22;6031;50.220;10.122;2023-04-21T14:05:40;24.50;99.90
11944;DHT22;6031;50.220;10.122;2023-04-21T14:08:06;24.50;99.90
11944;DHT22;6031;50.220;10.122;2023-04-21T14:10:31;25.00;99.90
11944;DHT22;6031;50.220;10.122;2023-04-21T14:12:57;25.20;99.90
11944;DHT22;6031;50.220;10.122;2023-04-21T14:15:23;24.70;99.90
11944;DHT22;6031;50.220;10.122;2023-04-21T14:17:51;24.30;99.90
11944;DHT22;6031;50.220;10.122;2023-04-21T14:20:17;24.50;99.90
11944;DHT22;6031;50.220;10.122;2023-04-21T14:22:42;24.30;99.90
11944;DHT22;6031;50.220;10.122;2023-04-21T14:25:08;24.00;99.90
11944;DHT22;6031;50.220;10.122;2023-04-21T14:27:33;23.00;99.90
11944;DHT22;6031;50.220;10.122;2023-04-21T14:29:59;22.50;99.90
11944;DHT22;6031;50.220;10.122;2023-04-21T14:32:24;22.60;99.90
11944;DHT22;6031;50.220;10.122;2023-04-21T14:34:50;22.60;99.90
11944;DHT22;6031;50.220;10.122;2023-04-21T14:37:18;22.40;99.90
11944;DHT22;6031;50.220;10.122;2023-04-21T14:39:44;23.10;99.90
11944;DHT22;6031;50.220;10.122;2023-04-21T14:42:10;23.70;99.90
11944;DHT22;6031;50.220;10.122;2023-04-21T14:44:35;23.60;99.90
11944;DHT22;6031;50.220;10.122;2023-04-21T14:47:01;23.20;99.90
11944;DHT22;6031;50.220;10.122;2023-04-21T14:49:27;22.80;99.90
11944;DHT22;6031;50.220;10.122;2023-04-21T14:51:52;22.50;99.90
11944;DHT22;6031;50.220;10.122;2023-04-21T14:54:18;22.60;99.90
11944;DHT22;6031;50.220;10.122;2023-04-21T14:56:43;22.80;99.90
11944;DHT22;6031;50.220;10.122;2023-04-21T14:59:10;23.30;99.90
11944;DHT22;6031;50.220;10.122;2023-04-21T15:01:36;23.30;99.90
11944;DHT22;6031;50.220;10.122;2023-04-21T15:04:01;22.90;99.90
11944;DHT22;6031;50.220;10.122;2023-04-21T15:06:27;22.50;99.90
11944;DHT22;6031;50.220;10.122;2023-04-21T15:08:53;22.10;99.90
11944;DHT22;6031;50.220;10.122;2023-04-21T15:11:19;21.90;99.90
11944;DHT22;6031;50.220;10.122;2023-04-21T15:13:44;21.50;99.90
11944;DHT22;6031;50.220;10.122;2023-04-21T15:16:10;21.50;99.90
11944;DHT22;6031;50.220;10.122;2023-04-21T15:18:35;21.40;99.90
11944;DHT22;6031;50.220;10.122;2023-04-21T15:21:01;21.10;99.90
11944;DHT22;6031;50.220;10.122;2023-04-21T15:23:26;21.00;99.90
11944;DHT22;6031;50.220;10.122;2023-04-21T15:25:53;21.50;99.90
11944;DHT22;6031;50.220;10.122;2023-04-21T15:28:19;22.20;99.90
11944;DHT22;6031;50.220;10.122;2023-04-21T15:30:44;22.50;99.90
11944;DHT22;6031;50.220;10.122;2023-04-21T15:33:10;22.90;99.90
11944;DHT22;6031;50.220;10.122;2023-04-21T15:35:35;22.50;99.90
11944;DHT22;6031;50.220;10.122;2023-04-21T15:38:01;22.30;1.00
11944;DHT22;6031;50.220;10.122;2023-04-21T15:40:27;21.80;99.90
11944;DHT22;6031;50.220;10.122;2023-04-21T15:42:52;21.30;99.90
11944;DHT22;6031;50.220;10.122;2023-04-21T15:45:18;21.00;99.90
11944;DHT22;6031;50.220;10.122;2023-04-21T15:47:43;20.70;99.90
11944;DHT22;6031;50.220;10.122;2023-04-21T15:50:09;20.70;99.90
11944;DHT22;6031;50.220;10.122;2023-04-21T15:52:35;20.60;99.90